Aeroporto :







RITROVATECI SU...

 
LOGIN :

Iscrizione | Disclaimer

   EN    FR    IT 

 









Sommario :    VFR   VFR Marginale   IFR   IFR Intensivo   IFR Molto Intensivo
Visibilità : 
Base nubi : 
>= 8 km
>= 3000ft
5 / 8 km
1000 / 3000 ft
1500m / 5 km
500 / 1000 ft
800 / 1500m
200 / 500 ft
< 800m
< 200 ft
Simboli :   Temporali  Nebbia  Neve Forte  Precipitazioni Forti  Vento > 20 kt






- Altitudine del aeroporto : 334 ft
- AEROPORTO CHIUSO.


KCWN - White Mountain

ULTIMO METAR :
  • 221219Z AUTO 00000KT 5/8SM -FZRA VV003 M06/M07 A2995 RMK AO2 FZRAE1158SNB11E15FZRAB19 SLP100 $

METARs OBSOLETI :
  • 221215Z AUTO 00000KT 5/8SM -PL BKN002 M06/M07 A2995 RMK AO2 VIS 5/8V1 1/4 FZRAE1158SNB11E15 SLP100 $
  • 221159Z AUTO 00000KT 1/2SM -PL VV003 M06/M07 A2995 RMK AO2 FZRAE58 SLP100 $
  • 220958Z AUTO 00000KT 1 1/4SM -SN BKN017 BKN027 OVC042 M06/M07 A2997 RMK AO2 CIG 017V027 BKN017 V SCT SLP107 T10611067 $
  • 220933Z AUTO 00000KT 1 3/8SM -SN SCT002 OVC028 M06/M07 A2998 RMK AO2 CIG 002V028 SLP111 $

TAF N/A



MetMap, La meteo Aeronautica in un colpo d'occhio ! - Copyright ORBIFLY Dicembre 2007 - Disclaimer

ORBIFLY MET'MAP TEAM :

Programmazione e sviluppo : Alexandra Zaïnal
Concezione e sviluppo : Baudouin d'Aumeries
Co-Programmazione e sviluppo : Marc-Olivier Méhu
Supporto tecnico e logistico : Manuel Goepfert
Aiuto per la traduzione : Arnaldo La Scala

Contatto : metmap@orbifly.com




FONTI E CREDITI :

   NOAA